createdAt,value
2023-02-16T00:00:50.449Z,1.02
2023-02-16T00:03:23.939Z,0.99
2023-02-16T00:05:53.437Z,0.97
2023-02-16T00:08:22.400Z,0.95
2023-02-16T00:11:19.191Z,0.96
2023-02-16T00:13:53.257Z,0.94
2023-02-16T00:16:26.060Z,0.92
2023-02-16T00:18:56.489Z,0.92
2023-02-16T00:21:26.653Z,0.92
2023-02-16T00:23:55.692Z,0.92
2023-02-16T00:26:30.743Z,0.83
2023-02-16T00:29:00.803Z,0.81
2023-02-16T00:31:32.943Z,0.78
2023-02-16T00:34:26.316Z,0.75
2023-02-16T00:36:55.736Z,0.81
2023-02-16T00:39:26.789Z,0.82
2023-02-16T00:42:02.180Z,0.78
2023-02-16T00:44:39.335Z,0.73
2023-02-16T00:47:21.575Z,0.69
2023-02-16T00:49:53.437Z,0.68
2023-02-16T00:52:35.123Z,0.68
2023-02-16T00:55:08.123Z,0.64
2023-02-16T00:57:44.004Z,0.61
2023-02-16T01:00:22.133Z,0.63
2023-02-16T01:02:54.358Z,0.67
2023-02-16T01:05:24.414Z,0.61
2023-02-16T01:08:11.321Z,0.63
2023-02-16T01:10:59.146Z,0.51
2023-02-16T01:13:32.392Z,0.50
2023-02-16T01:16:03.545Z,0.55
2023-02-16T01:18:34.292Z,0.58
2023-02-16T01:21:04.540Z,0.60
2023-02-16T01:23:34.013Z,0.59
2023-02-16T01:26:04.060Z,0.58
2023-02-16T01:28:38.056Z,0.52
2023-02-16T01:31:08.432Z,0.52
2023-02-16T01:33:38.788Z,0.52
2023-02-16T01:36:26.061Z,0.50
2023-02-16T01:38:56.487Z,0.53
2023-02-16T01:41:45.351Z,0.52
2023-02-16T01:44:23.333Z,0.52
2023-02-16T01:46:57.828Z,0.55
2023-02-16T01:49:26.876Z,0.52
2023-02-16T01:52:07.204Z,0.50
2023-02-16T01:54:46.101Z,0.53
2023-02-16T01:57:33.079Z,0.47
2023-02-16T02:00:27.637Z,0.42
2023-02-16T02:03:20.604Z,0.40
2023-02-16T02:05:51.282Z,0.38
2023-02-16T02:08:35.102Z,0.39
2023-02-16T02:11:11.575Z,0.37
2023-02-16T02:13:47.518Z,0.35
2023-02-16T02:16:22.559Z,0.35
2023-02-16T02:18:52.853Z,0.36
2023-02-16T02:22:18.304Z,0.28
2023-02-16T02:25:58.080Z,0.17
2023-02-16T02:28:36.917Z,0.17
2023-02-16T02:31:16.663Z,0.19
2023-02-16T02:34:05.021Z,0.21
2023-02-16T02:36:43.906Z,0.18
2023-02-16T02:39:31.604Z,0.14
2023-02-16T02:42:11.371Z,0.13
2023-02-16T02:44:48.539Z,0.16
2023-02-16T02:47:18.946Z,0.16
2023-02-16T02:49:54.765Z,0.15
2023-02-16T02:52:25.215Z,0.08
2023-02-16T02:55:12.476Z,0.08
2023-02-16T02:58:05.852Z,0.08
2023-02-16T03:00:45.017Z,0.03
2023-02-16T03:03:25.809Z,0.04
2023-02-16T03:06:10.150Z,0.02
2023-02-16T03:08:45.834Z,-0.02
2023-02-16T03:11:48.570Z,-0.06
2023-02-16T03:14:24.650Z,-0.08
2023-02-16T03:17:17.511Z,-0.05
2023-02-16T03:20:10.344Z,-0.08
2023-02-16T03:22:58.326Z,-0.11
2023-02-16T03:25:50.962Z,-0.11
2023-02-16T03:28:40.952Z,-0.19
2023-02-16T03:31:18.174Z,-0.23
2023-02-16T03:33:55.245Z,-0.25
2023-02-16T03:36:26.761Z,-0.21
2023-02-16T03:38:58.987Z,-0.17
2023-02-16T03:41:33.951Z,-0.14
2023-02-16T03:44:04.255Z,-0.15
2023-02-16T03:46:33.422Z,-0.25
2023-02-16T03:49:05.142Z,-0.26
2023-02-16T03:51:35.470Z,-0.34
2023-02-16T03:54:05.758Z,-0.38
2023-02-16T03:56:35.817Z,-0.34
2023-02-16T03:59:06.681Z,-0.29
2023-02-16T04:01:36.268Z,-0.26
2023-02-16T04:04:07.779Z,-0.26
2023-02-16T04:06:38.915Z,-0.25
2023-02-16T04:09:08.667Z,-0.25
2023-02-16T04:11:55.111Z,-0.19
2023-02-16T04:14:25.160Z,-0.23
2023-02-16T04:16:56.680Z,-0.21
2023-02-16T04:19:27.538Z,-0.25
2023-02-16T04:21:57.581Z,-0.23
2023-02-16T04:24:27.600Z,-0.23
2023-02-16T04:26:58.622Z,-0.19
2023-02-16T04:29:29.966Z,-0.20
2023-02-16T04:32:00.256Z,-0.21
2023-02-16T04:34:31.634Z,-0.24
2023-02-16T04:37:01.822Z,-0.28
2023-02-16T04:39:30.638Z,-0.28
2023-02-16T04:42:00.651Z,-0.28
2023-02-16T04:44:30.604Z,-0.29
2023-02-16T04:47:00.728Z,-0.29
2023-02-16T04:49:32.587Z,-0.28
2023-02-16T04:52:04.741Z,-0.28
2023-02-16T04:54:35.833Z,-0.31
2023-02-16T04:57:06.332Z,-0.31
2023-02-16T04:59:36.883Z,-0.31
2023-02-16T05:02:07.635Z,-0.37
2023-02-16T05:04:38.814Z,-0.42
2023-02-16T05:07:09.741Z,-0.46
2023-02-16T05:09:39.986Z,-0.45
2023-02-16T05:12:27.076Z,-0.47
2023-02-16T05:14:57.140Z,-0.48
2023-02-16T05:17:29.239Z,-0.52
2023-02-16T05:20:02.344Z,-0.50
2023-02-16T05:22:34.443Z,-0.52
2023-02-16T05:25:06.153Z,-0.47
2023-02-16T05:27:36.314Z,-0.48
2023-02-16T05:30:06.466Z,-0.51
2023-02-16T05:32:35.944Z,-0.53
2023-02-16T05:35:07.340Z,-0.55
2023-02-16T05:37:36.726Z,-0.53
2023-02-16T05:40:07.829Z,-0.50
2023-02-16T05:42:36.242Z,-0.54
2023-02-16T05:45:06.544Z,-0.59
2023-02-16T05:47:35.435Z,-0.59
2023-02-16T05:50:08.599Z,-0.63
2023-02-16T05:52:38.573Z,-0.63
2023-02-16T05:55:09.706Z,-0.69
2023-02-16T05:57:39.737Z,-0.76
2023-02-16T06:00:11.617Z,-0.78
2023-02-16T06:02:41.055Z,-0.79
2023-02-16T06:05:12.315Z,-0.75
2023-02-16T06:07:42.123Z,-0.85
2023-02-16T06:10:13.834Z,-0.82
2023-02-16T06:12:44.810Z,-0.82
2023-02-16T06:15:14.952Z,-0.82
2023-02-16T06:17:45.596Z,-0.86
2023-02-16T06:20:17.066Z,-0.82
2023-02-16T06:22:45.979Z,-0.83
2023-02-16T06:25:16.585Z,-0.86
2023-02-16T06:27:46.454Z,-0.88
2023-02-16T06:30:17.171Z,-0.84
2023-02-16T06:32:47.519Z,-0.82
2023-02-16T06:35:19.087Z,-0.85
2023-02-16T06:37:48.175Z,-0.86
2023-02-16T06:40:19.818Z,-0.88
2023-02-16T06:42:49.837Z,-0.88
2023-02-16T06:45:20.038Z,-0.89
2023-02-16T06:47:49.033Z,-0.94
2023-02-16T06:50:20.562Z,-0.97
2023-02-16T06:52:50.539Z,-0.93
2023-02-16T06:55:20.902Z,-0.96
2023-02-16T06:57:50.312Z,-0.95
2023-02-16T07:00:21.959Z,-0.95
2023-02-16T07:02:51.462Z,-1.02
2023-02-16T07:05:22.829Z,-1.05
2023-02-16T07:07:52.529Z,-1.02
2023-02-16T07:10:22.489Z,-0.98
2023-02-16T07:12:52.567Z,-0.95
2023-02-16T07:15:23.076Z,-0.95
2023-02-16T07:17:52.556Z,-0.97
2023-02-16T07:20:24.591Z,-0.95
2023-02-16T07:22:55.256Z,-0.93
2023-02-16T07:25:26.477Z,-0.96
2023-02-16T07:27:56.654Z,-0.93
2023-02-16T07:30:26.505Z,-0.89
2023-02-16T07:32:55.356Z,-0.89
2023-02-16T07:35:26.215Z,-0.90
2023-02-16T07:37:55.417Z,-0.89
2023-02-16T07:40:24.830Z,-0.87
2023-02-16T07:42:54.009Z,-0.83
2023-02-16T07:45:23.200Z,-0.81
2023-02-16T07:47:52.134Z,-0.82
2023-02-16T07:50:22.087Z,-0.80
2023-02-16T07:52:52.952Z,-0.78
2023-02-16T07:55:22.329Z,-0.78
2023-02-16T07:57:56.003Z,-0.76
2023-02-16T08:00:26.176Z,-0.78
2023-02-16T08:02:55.671Z,-0.74
2023-02-16T08:05:26.448Z,-0.75
2023-02-16T08:07:56.812Z,-0.70
2023-02-16T08:10:26.862Z,-0.69
2023-02-16T08:12:56.173Z,-0.68
2023-02-16T08:15:25.136Z,-0.65
2023-02-16T08:17:54.980Z,-0.58
2023-02-16T08:20:43.250Z,-0.55
2023-02-16T08:23:15.274Z,-0.48
2023-02-16T08:25:46.503Z,-0.45
2023-02-16T08:28:16.451Z,-0.41
2023-02-16T08:30:46.760Z,-0.35
2023-02-16T08:33:15.754Z,-0.31
2023-02-16T08:35:45.832Z,-0.25
2023-02-16T08:38:17.874Z,-0.21
2023-02-16T08:40:51.968Z,-0.11
2023-02-16T08:43:23.043Z,-0.02
2023-02-16T08:45:54.194Z,0.07
2023-02-16T08:48:24.193Z,0.16
2023-02-16T08:50:54.435Z,0.25
2023-02-16T08:53:27.925Z,0.33
2023-02-16T08:55:57.615Z,0.43
2023-02-16T08:58:27.479Z,0.53
2023-02-16T09:00:57.929Z,0.62
2023-02-16T09:03:27.570Z,0.70
2023-02-16T09:06:01.915Z,0.77
2023-02-16T09:08:33.967Z,0.88
2023-02-16T09:11:04.950Z,0.98
2023-02-16T09:13:36.459Z,1.07
2023-02-16T09:16:07.885Z,1.16
2023-02-16T09:18:37.751Z,1.26
2023-02-16T09:22:00.382Z,1.40
2023-02-16T09:24:31.880Z,1.51
2023-02-16T09:27:02.328Z,1.63
2023-02-16T09:29:32.508Z,1.77
2023-02-16T09:32:04.171Z,1.87
2023-02-16T09:34:34.282Z,2.01
2023-02-16T09:37:04.354Z,2.15
2023-02-16T09:39:35.254Z,2.24
2023-02-16T09:42:30.464Z,2.37
2023-02-16T09:45:09.767Z,2.46
2023-02-16T09:47:43.590Z,2.54
2023-02-16T09:50:27.752Z,2.67
2023-02-16T09:53:15.137Z,2.81
2023-02-16T09:56:00.164Z,2.86
2023-02-16T09:58:39.542Z,3.00
2023-02-16T10:01:23.725Z,3.12
2023-02-16T10:04:12.562Z,3.19
2023-02-16T10:07:04.095Z,3.27
2023-02-16T10:09:36.791Z,3.34
2023-02-16T10:12:16.445Z,3.38
2023-02-16T10:14:54.112Z,3.47
2023-02-16T10:17:33.358Z,3.60
2023-02-16T10:20:13.330Z,3.65
2023-02-16T10:22:50.141Z,3.69
2023-02-16T10:25:26.386Z,3.77
2023-02-16T10:28:17.501Z,3.82
2023-02-16T10:30:56.073Z,3.86
2023-02-16T10:33:42.525Z,3.89
2023-02-16T10:36:26.026Z,3.98
2023-02-16T10:39:09.321Z,4.05
2023-02-16T10:41:45.675Z,4.15
2023-02-16T10:44:24.342Z,4.24
2023-02-16T10:47:02.766Z,4.28
2023-02-16T10:49:34.390Z,4.34
2023-02-16T10:52:05.235Z,4.42
2023-02-16T10:54:37.830Z,4.49
2023-02-16T10:57:21.181Z,4.57
2023-02-16T10:59:55.534Z,4.66
2023-02-16T11:02:28.958Z,4.70
2023-02-16T11:05:02.320Z,4.77
2023-02-16T11:07:33.997Z,4.82
2023-02-16T11:10:23.145Z,4.89
2023-02-16T11:12:58.228Z,4.95
2023-02-16T11:15:31.899Z,5.02
2023-02-16T11:18:06.472Z,5.10
2023-02-16T11:20:54.284Z,5.18
2023-02-16T11:23:26.940Z,5.30
2023-02-16T11:26:03.230Z,5.36
2023-02-16T11:28:37.726Z,5.45
2023-02-16T11:31:19.302Z,5.54
2023-02-16T11:34:06.236Z,5.64
2023-02-16T11:36:41.041Z,5.72
2023-02-16T11:39:22.571Z,5.82
2023-02-16T11:41:56.269Z,5.90
2023-02-16T11:44:34.370Z,5.96
2023-02-16T11:47:11.032Z,6.05
2023-02-16T11:49:43.832Z,6.15
2023-02-16T11:52:30.607Z,6.26
2023-02-16T11:55:02.713Z,6.36
2023-02-16T11:57:33.819Z,6.42
2023-02-16T12:00:17.029Z,6.53
2023-02-16T12:03:19.966Z,6.58
2023-02-16T12:06:27.924Z,6.70
2023-02-16T12:09:15.677Z,6.79
2023-02-16T12:12:01.519Z,6.84
2023-02-16T12:14:48.572Z,6.91
2023-02-16T12:17:43.503Z,6.98
2023-02-16T12:20:35.109Z,7.06
2023-02-16T12:23:26.258Z,7.10
2023-02-16T12:26:32.323Z,7.13
2023-02-16T12:29:20.728Z,7.20
2023-02-16T12:32:09.597Z,7.31
2023-02-16T12:34:57.758Z,7.43
2023-02-16T12:37:39.791Z,7.72
2023-02-16T12:40:25.009Z,7.77
2023-02-16T12:43:10.307Z,7.90
2023-02-16T12:45:46.122Z,8.06
2023-02-16T12:48:34.840Z,8.28
2023-02-16T12:51:11.767Z,8.41
2023-02-16T12:53:52.005Z,8.37
2023-02-16T12:56:29.039Z,8.38
2023-02-16T12:59:20.538Z,8.45
2023-02-16T13:01:57.735Z,8.50
2023-02-16T13:04:39.427Z,8.55
2023-02-16T13:07:19.856Z,8.65
2023-02-16T13:10:02.814Z,8.67
2023-02-16T13:12:41.208Z,8.63
2023-02-16T13:15:18.683Z,8.60
2023-02-16T13:17:54.548Z,8.59
2023-02-16T13:20:26.616Z,8.64
2023-02-16T13:23:38.711Z,8.65
2023-02-16T13:26:47.556Z,8.67
2023-02-16T13:29:47.757Z,8.68
2023-02-16T13:33:02.623Z,8.73
2023-02-16T13:36:05.317Z,8.75
2023-02-16T13:39:11.314Z,8.81
2023-02-16T13:42:13.119Z,8.87
2023-02-16T13:44:49.790Z,8.95
2023-02-16T13:47:27.979Z,8.92
2023-02-16T13:50:03.001Z,8.96
2023-02-16T13:52:38.527Z,8.97
2023-02-16T13:55:24.869Z,9.01
2023-02-16T13:58:32.615Z,9.04
2023-02-16T14:01:43.158Z,9.08
2023-02-16T14:05:10.762Z,9.14
2023-02-16T14:07:40.637Z,9.10
2023-02-16T14:10:15.680Z,9.09
2023-02-16T14:12:46.076Z,9.08
2023-02-16T14:15:23.830Z,9.10
2023-02-16T14:17:53.966Z,9.10
2023-02-16T14:20:31.331Z,9.20
2023-02-16T14:23:01.290Z,9.15
2023-02-16T14:25:42.157Z,9.14
2023-02-16T14:29:00.618Z,9.14
2023-02-16T14:31:41.432Z,9.14
2023-02-16T14:34:29.473Z,9.14
2023-02-16T14:37:29.231Z,9.08
2023-02-16T14:40:14.359Z,9.05
2023-02-16T14:42:54.118Z,9.09
2023-02-16T14:46:08.908Z,9.07
2023-02-16T14:49:26.552Z,9.04
2023-02-16T14:52:44.864Z,9.00
2023-02-16T14:55:45.133Z,9.00
2023-02-16T14:58:31.815Z,9.00
2023-02-16T15:01:12.307Z,9.00
2023-02-16T15:03:47.072Z,8.98
2023-02-16T15:06:33.778Z,8.99
2023-02-16T15:09:13.598Z,8.98
2023-02-16T15:12:08.795Z,9.02
2023-02-16T15:14:45.693Z,8.98
2023-02-16T15:17:32.971Z,8.98
2023-02-16T15:20:20.143Z,8.97
2023-02-16T15:22:52.593Z,8.97
2023-02-16T15:25:30.040Z,8.99
2023-02-16T15:28:05.035Z,9.00
2023-02-16T15:30:36.322Z,8.98
2023-02-16T15:33:09.528Z,8.97
2023-02-16T15:35:42.049Z,8.96
2023-02-16T15:38:24.979Z,8.99
2023-02-16T15:40:55.174Z,8.99
2023-02-16T15:43:32.988Z,8.99
2023-02-16T15:46:04.756Z,8.98
2023-02-16T15:48:35.174Z,8.94
2023-02-16T15:51:15.840Z,8.94
2023-02-16T15:53:53.217Z,8.93
2023-02-16T15:56:42.647Z,8.91
2023-02-16T15:59:35.507Z,8.91
2023-02-16T16:02:16.498Z,8.88
2023-02-16T16:04:50.588Z,8.89
2023-02-16T16:07:33.495Z,8.86
2023-02-16T16:10:04.156Z,8.85
2023-02-16T16:12:33.999Z,8.84
2023-02-16T16:15:04.437Z,8.83
2023-02-16T16:17:39.648Z,8.84
2023-02-16T16:20:31.093Z,8.84
2023-02-16T16:23:05.585Z,8.84
2023-02-16T16:25:44.815Z,8.85
2023-02-16T16:28:34.104Z,8.84
2023-02-16T16:31:11.778Z,8.85
2023-02-16T16:34:03.030Z,8.83
2023-02-16T16:36:35.544Z,8.84
2023-02-16T16:39:32.849Z,8.83
2023-02-16T16:42:20.443Z,8.82
2023-02-16T16:45:01.254Z,8.79
2023-02-16T16:47:35.250Z,8.77
2023-02-16T16:50:29.092Z,8.73
2023-02-16T16:52:58.840Z,8.73
2023-02-16T16:55:35.451Z,8.73
2023-02-16T16:58:09.688Z,8.71
2023-02-16T17:00:42.352Z,8.68
2023-02-16T17:03:17.669Z,8.67
2023-02-16T17:05:47.491Z,8.67
2023-02-16T17:08:15.946Z,8.64
2023-02-16T17:10:46.420Z,8.63
2023-02-16T17:13:22.020Z,8.62
2023-02-16T17:15:55.823Z,8.58
2023-02-16T17:18:25.093Z,8.53
2023-02-16T17:20:53.801Z,8.53
2023-02-16T17:23:24.649Z,8.47
2023-02-16T17:25:55.322Z,8.41
2023-02-16T17:28:25.414Z,8.36
2023-02-16T17:30:55.388Z,8.31
2023-02-16T17:33:24.639Z,8.24
2023-02-16T17:35:54.418Z,8.21
2023-02-16T17:38:26.282Z,8.16
2023-02-16T17:41:01.426Z,8.15
2023-02-16T17:43:30.944Z,8.10
2023-02-16T17:46:05.348Z,8.06
2023-02-16T17:48:34.498Z,7.98
2023-02-16T17:51:04.529Z,7.96
2023-02-16T17:53:34.586Z,7.94
2023-02-16T17:56:05.957Z,7.94
2023-02-16T17:58:36.145Z,7.91
2023-02-16T18:01:06.146Z,7.91
2023-02-16T18:03:37.148Z,7.84
2023-02-16T18:06:07.783Z,7.84
2023-02-16T18:08:37.877Z,7.79
2023-02-16T18:11:09.623Z,7.78
2023-02-16T18:13:39.527Z,7.70
2023-02-16T18:16:12.511Z,7.69
2023-02-16T18:18:42.312Z,7.64
2023-02-16T18:21:12.027Z,7.58
2023-02-16T18:23:41.789Z,7.52
2023-02-16T18:26:15.622Z,7.46
2023-02-16T18:28:45.681Z,7.38
2023-02-16T18:31:15.444Z,7.37
2023-02-16T18:33:45.076Z,7.34
2023-02-16T18:36:14.390Z,7.32
2023-02-16T18:38:43.926Z,7.30
2023-02-16T18:41:15.358Z,7.31
2023-02-16T18:43:45.279Z,7.32
2023-02-16T18:46:14.884Z,7.31
2023-02-16T18:48:44.432Z,7.29
2023-02-16T18:51:17.256Z,7.29
2023-02-16T18:53:46.998Z,7.32
2023-02-16T18:56:19.254Z,7.30
2023-02-16T18:58:49.490Z,7.25
2023-02-16T19:01:30.165Z,7.18
2023-02-16T19:04:01.078Z,7.17
2023-02-16T19:06:31.606Z,7.11
2023-02-16T19:09:00.523Z,7.06
2023-02-16T19:11:33.547Z,7.04
2023-02-16T19:14:04.574Z,7.01
2023-02-16T19:16:34.253Z,6.99
2023-02-16T19:19:03.803Z,6.98
2023-02-16T19:21:34.402Z,6.95
2023-02-16T19:24:03.597Z,6.95
2023-02-16T19:26:33.633Z,6.96
2023-02-16T19:29:03.853Z,6.87
2023-02-16T19:31:35.431Z,6.85
2023-02-16T19:34:06.270Z,6.82
2023-02-16T19:36:36.518Z,6.75
2023-02-16T19:39:06.264Z,6.73
2023-02-16T19:41:40.575Z,6.72
2023-02-16T19:44:13.928Z,6.69
2023-02-16T19:46:44.299Z,6.66
2023-02-16T19:49:15.407Z,6.66
2023-02-16T19:51:48.241Z,6.64
2023-02-16T19:54:17.810Z,6.59
2023-02-16T19:56:49.105Z,6.54
2023-02-16T19:59:19.385Z,6.54
2023-02-16T20:01:47.899Z,6.47
2023-02-16T20:04:17.920Z,6.46
2023-02-16T20:06:47.184Z,6.39
2023-02-16T20:09:17.743Z,6.37
2023-02-16T20:11:48.753Z,6.36
2023-02-16T20:14:17.606Z,6.31
2023-02-16T20:16:46.404Z,6.20
2023-02-16T20:19:17.566Z,6.22
2023-02-16T20:21:47.085Z,6.15
2023-02-16T20:24:17.190Z,6.14
2023-02-16T20:26:52.093Z,6.12
2023-02-16T20:29:21.297Z,6.09
2023-02-16T20:31:53.226Z,6.09
2023-02-16T20:34:23.964Z,6.05
2023-02-16T20:36:52.921Z,5.98
2023-02-16T20:39:22.467Z,5.97
2023-02-16T20:41:53.438Z,5.92
2023-02-16T20:44:23.964Z,5.92
2023-02-16T20:46:53.098Z,5.85
2023-02-16T20:49:23.159Z,5.83
2023-02-16T20:51:53.471Z,5.88
2023-02-16T20:54:22.011Z,5.86
2023-02-16T20:56:51.037Z,5.87
2023-02-16T20:59:21.954Z,5.81
2023-02-16T21:01:52.723Z,5.82
2023-02-16T21:04:23.267Z,5.82
2023-02-16T21:06:52.764Z,5.81
2023-02-16T21:09:22.303Z,5.82
2023-02-16T21:11:52.292Z,5.83
2023-02-16T21:14:23.396Z,5.83
2023-02-16T21:16:53.858Z,5.82
2023-02-16T21:19:23.756Z,5.80
2023-02-16T21:21:53.641Z,5.77
2023-02-16T21:24:23.163Z,5.80
2023-02-16T21:26:51.980Z,5.83
2023-02-16T21:29:22.834Z,5.85
2023-02-16T21:31:52.619Z,5.89
2023-02-16T21:34:22.041Z,5.86
2023-02-16T21:36:52.967Z,5.90
2023-02-16T21:39:43.777Z,5.90
2023-02-16T21:42:13.191Z,5.83
2023-02-16T21:44:45.727Z,5.87
2023-02-16T21:47:32.899Z,5.90
2023-02-16T21:50:03.521Z,5.91
2023-02-16T21:52:33.718Z,5.92
2023-02-16T21:55:20.532Z,5.93
2023-02-16T21:57:49.781Z,5.96
2023-02-16T22:00:21.224Z,5.96
2023-02-16T22:02:50.633Z,5.95
2023-02-16T22:05:20.361Z,5.95
2023-02-16T22:07:50.842Z,5.94
2023-02-16T22:10:20.301Z,5.95
2023-02-16T22:12:50.163Z,5.94
2023-02-16T22:15:20.541Z,5.95
2023-02-16T22:17:50.205Z,5.94
2023-02-16T22:20:20.105Z,5.99
2023-02-16T22:22:50.372Z,5.97
2023-02-16T22:25:20.345Z,5.99
2023-02-16T22:27:51.502Z,6.03
2023-02-16T22:30:24.074Z,6.07
2023-02-16T22:32:53.708Z,6.16
2023-02-16T22:35:22.704Z,6.22
2023-02-16T22:37:51.821Z,6.30
2023-02-16T22:40:22.198Z,6.37
2023-02-16T22:42:52.040Z,6.42
2023-02-16T22:45:26.905Z,6.49
2023-02-16T22:47:56.548Z,6.58
2023-02-16T22:50:26.619Z,6.67
2023-02-16T22:52:56.911Z,6.73
2023-02-16T22:55:26.490Z,6.78
2023-02-16T22:57:55.506Z,6.82
2023-02-16T23:00:26.044Z,6.88
2023-02-16T23:02:55.114Z,6.93
2023-02-16T23:05:25.090Z,6.98
2023-02-16T23:07:55.264Z,7.01
2023-02-16T23:10:24.449Z,7.05
2023-02-16T23:12:54.640Z,7.13
2023-02-16T23:15:26.076Z,7.15
2023-02-16T23:17:55.734Z,7.17
2023-02-16T23:20:25.280Z,7.21
2023-02-16T23:22:54.868Z,7.23
2023-02-16T23:25:37.092Z,7.26
2023-02-16T23:28:07.205Z,7.26
2023-02-16T23:30:38.918Z,7.28
2023-02-16T23:33:09.480Z,7.33
2023-02-16T23:35:40.913Z,7.35
2023-02-16T23:38:16.827Z,7.38
2023-02-16T23:40:46.150Z,7.44
2023-02-16T23:43:16.200Z,7.48
2023-02-16T23:45:47.550Z,7.56
2023-02-16T23:48:16.453Z,7.59
2023-02-16T23:50:46.543Z,7.64
2023-02-16T23:53:16.785Z,7.66
2023-02-16T23:55:45.441Z,7.68
2023-02-16T23:58:15.315Z,7.72
